Terminal Aerodrome Forecast
Issued by NWS Atlanta, GA

Home | Current Version | Previous Version | Text Only | Print | Product List | Glossary On
Versions: 1 2 3 4 5 6 7 8 9 10 11 12 13 14
576
FTUS42 KFFC 041045 AAA
TAFMCN
TAF AMD
KMCN 041045Z 0411/0506 08007KT P6SM OVC025
     FM041300 08008KT 4SM -RA BR OVC025
     FM042000 08007KT 4SM -RA BR OVC015
     FM050000 08007KT 3SM -RA BR OVC008=

USA.gov is the U.S. government's official web portal to all federal, state and local government web resources and services.